Time;durP1;ratioP1;P1;durP2;ratioP2;P2;SDS_P1;SDS_P2;PMS_P1;PMS_P2;Temp;Humidity;BMP_temperature;BMP_pressure;BME280_temperature;BME280_humidity;BME280_pressure;Samples;Min_cycle;Max_cycle;Signal;HPM_P1;HPM_P2
2022/10/17 00:00:58;;;;;;;5.20;4.70;;;14.00;99.90;;;;;;10398608;28;20246;-75
2022/10/17 00:06:03;;;;;;;6.23;4.77;;;13.90;99.90;;;;;;10422011;28;20234;-72
2022/10/17 00:11:07;;;;;;;12.37;4.60;;;13.90;99.90;;;;;;10390924;28;20243;-73
2022/10/17 00:16:08;;;;;;;9.03;4.30;;;13.90;99.90;;;;;;10388823;28;20657;-73
2022/10/17 00:21:17;;;;;;;6.27;4.20;;;13.80;99.90;;;;;;10415844;28;20230;-74
2022/10/17 00:26:19;;;;;;;5.67;4.27;;;13.80;99.90;;;;;;10425215;28;20363;-73
2022/10/17 00:31:22;;;;;;;8.07;4.83;;;13.80;99.90;;;;;;10409951;28;20235;-74
2022/10/17 00:36:26;;;;;;;5.67;4.23;;;13.80;99.90;;;;;;10425404;28;20262;-74
2022/10/17 00:41:30;;;;;;;8.87;4.67;;;13.70;99.90;;;;;;10412248;28;20233;-74
2022/10/17 00:46:33;;;;;;;14.43;4.87;;;13.70;99.90;;;;;;10429179;28;20215;-74
2022/10/17 00:51:56;;;;;;;5.00;4.50;;;13.60;99.90;;;;;;10402396;28;20254;-74
2022/10/17 00:56:57;;;;;;;5.80;4.77;;;13.60;99.90;;;;;;10416130;28;20691;-75
2022/10/17 01:02:24;;;;;;;7.07;5.47;;;13.60;99.90;;;;;;10404972;28;20232;-75
2022/10/17 01:07:27;;;;;;;10.97;5.00;;;13.50;99.90;;;;;;10400355;28;20225;-73
2022/10/17 01:12:41;;;;;;;6.50;4.90;;;13.50;99.90;;;;;;10401949;28;20212;-72
2022/10/17 01:18:11;;;;;;;10.90;5.30;;;13.50;99.90;;;;;;10401816;28;20228;-74
2022/10/17 01:23:49;;;;;;;7.70;4.97;;;13.40;99.90;;;;;;10402380;28;20312;-73
2022/10/17 01:29:15;;;;;;;5.50;4.90;;;13.50;99.90;;;;;;10396308;28;20235;-74
2022/10/17 01:34:26;;;;;;;10.37;6.17;;;13.40;99.90;;;;;;10400871;28;20228;-74
2022/10/17 01:39:33;;;;;;;7.93;5.60;;;13.40;99.90;;;;;;10398792;28;20219;-73
2022/10/17 01:44:38;;;;;;;9.30;5.57;;;13.50;99.90;;;;;;10402726;28;20309;-73
2022/10/17 01:49:42;;;;;;;8.93;5.23;;;13.40;99.90;;;;;;10390352;28;20817;-74
2022/10/17 01:54:50;;;;;;;6.10;4.90;;;13.40;99.90;;;;;;10395954;28;20254;-74
2022/10/17 01:59:53;;;;;;;9.97;4.60;;;13.30;99.90;;;;;;10387226;28;20282;-74
2022/10/17 02:04:56;;;;;;;5.43;4.33;;;13.30;99.90;;;;;;10394971;28;20650;-73
2022/10/17 02:09:56;;;;;;;5.90;4.07;;;13.30;99.90;;;;;;10429363;28;20222;-74
2022/10/17 02:15:19;;;;;;;8.40;4.20;;;13.20;99.90;;;;;;10395622;28;20220;-74
2022/10/17 02:20:30;;;;;;;7.03;4.10;;;13.20;99.90;;;;;;10435848;28;20227;-75
2022/10/17 02:25:44;;;;;;;7.30;4.33;;;13.20;99.90;;;;;;10406507;28;20236;-75
2022/10/17 02:30:48;;;;;;;6.13;3.73;;;13.10;99.90;;;;;;10387589;28;20239;-74
2022/10/17 02:35:53;;;;;;;5.20;3.73;;;13.10;99.90;;;;;;10395102;28;20239;-74
2022/10/17 02:40:54;;;;;;;6.83;3.80;;;13.10;99.90;;;;;;10399761;28;20258;-74
2022/10/17 02:45:56;;;;;;;5.43;3.47;;;13.00;99.90;;;;;;10385310;28;20246;-74
2022/10/17 02:51:14;;;;;;;4.63;3.43;;;13.00;99.90;;;;;;10384955;28;20315;-73
2022/10/17 02:56:20;;;;;;;7.73;3.80;;;13.00;99.90;;;;;;10393239;28;20230;-73
2022/10/17 03:01:21;;;;;;;4.70;3.53;;;13.00;99.90;;;;;;10392457;28;20227;-74
2022/10/17 03:06:21;;;;;;;5.90;3.70;;;13.00;99.90;;;;;;10392519;28;20259;-74
2022/10/17 03:11:22;;;;;;;7.27;4.00;;;12.90;99.90;;;;;;10392086;28;20285;-74
2022/10/17 03:16:22;;;;;;;5.30;3.53;;;12.90;99.90;;;;;;10398305;28;20643;-74
2022/10/17 03:21:23;;;;;;;8.10;3.30;;;12.90;99.90;;;;;;10396795;28;20227;-73
2022/10/17 03:26:24;;;;;;;4.27;3.53;;;12.90;99.90;;;;;;10399936;28;20227;-73
2022/10/17 03:31:24;;;;;;;11.30;3.93;;;12.80;99.90;;;;;;10411006;28;20235;-74
2022/10/17 03:36:25;;;;;;;5.47;3.53;;;12.80;99.90;;;;;;10396200;28;20311;-73
2022/10/17 03:41:25;;;;;;;5.63;3.47;;;12.80;99.90;;;;;;10387447;28;20598;-73
2022/10/17 03:46:26;;;;;;;8.13;3.23;;;12.80;99.90;;;;;;10392603;28;20231;-73
2022/10/17 03:51:26;;;;;;;8.90;4.27;;;12.80;99.90;;;;;;10397742;28;20243;-74
2022/10/17 03:56:27;;;;;;;6.30;5.20;;;12.90;99.90;;;;;;10395224;28;20318;-74
2022/10/17 04:01:29;;;;;;;13.00;7.80;;;12.80;99.90;;;;;;10394351;28;20293;-74
2022/10/17 04:06:29;;;;;;;11.30;6.67;;;12.80;99.90;;;;;;10395622;28;20238;-73
2022/10/17 04:11:30;;;;;;;12.40;6.43;;;12.90;99.90;;;;;;10397270;28;20243;-73
2022/10/17 04:16:30;;;;;;;7.23;5.40;;;12.90;99.90;;;;;;10397875;28;20226;-73
2022/10/17 04:21:31;;;;;;;16.53;9.10;;;12.90;99.90;;;;;;10393890;28;20219;-73
2022/10/17 04:26:31;;;;;;;11.27;8.07;;;12.90;99.90;;;;;;10398705;28;20250;-74
2022/10/17 04:31:32;;;;;;;8.80;7.83;;;12.80;99.90;;;;;;10390632;28;20232;-74
2022/10/17 04:36:33;;;;;;;12.07;6.53;;;12.80;99.90;;;;;;10394845;28;20271;-70
2022/10/17 04:41:33;;;;;;;10.20;5.97;;;12.80;99.90;;;;;;10384103;28;20228;-70
2022/10/17 04:46:34;;;;;;;9.23;6.00;;;12.80;99.90;;;;;;10389845;28;20314;-71
2022/10/17 04:51:35;;;;;;;10.83;6.43;;;12.80;99.90;;;;;;10388488;28;20246;-71
2022/10/17 04:56:35;;;;;;;9.77;6.20;;;12.80;99.90;;;;;;10394780;28;20589;-69
2022/10/17 05:01:36;;;;;;;9.40;5.80;;;12.90;99.90;;;;;;10393981;28;20619;-68
2022/10/17 05:06:36;;;;;;;10.00;6.30;;;13.00;99.90;;;;;;10441587;28;20226;-69
2022/10/17 05:11:37;;;;;;;8.90;6.07;;;13.00;99.90;;;;;;10435590;28;20732;-70
2022/10/17 05:16:38;;;;;;;9.53;6.60;;;12.90;99.90;;;;;;10429039;28;20220;-70
2022/10/17 05:21:38;;;;;;;10.23;5.70;;;12.90;99.90;;;;;;10411208;28;20227;-71
2022/10/17 05:26:39;;;;;;;9.13;6.10;;;12.90;99.90;;;;;;10430564;28;20755;-69
2022/10/17 05:31:40;;;;;;;10.27;6.50;;;12.90;99.90;;;;;;10396297;28;20224;-70
2022/10/17 05:36:40;;;;;;;10.13;7.20;;;12.90;99.90;;;;;;10401630;28;20247;-70
2022/10/17 05:41:41;;;;;;;10.60;6.60;;;12.80;99.90;;;;;;10406080;28;20224;-69
2022/10/17 05:46:42;;;;;;;12.60;7.10;;;12.70;99.90;;;;;;10393889;28;20234;-71
2022/10/17 05:51:43;;;;;;;10.37;6.90;;;12.70;99.90;;;;;;10404996;28;20570;-69
2022/10/17 05:56:43;;;;;;;9.63;6.40;;;12.70;99.90;;;;;;10409697;28;20306;-71
2022/10/17 06:01:44;;;;;;;9.07;6.17;;;12.60;99.90;;;;;;10407945;28;20219;-72
2022/10/17 06:06:44;;;;;;;9.30;6.20;;;12.60;99.90;;;;;;10408511;28;20227;-72
2022/10/17 06:11:45;;;;;;;8.93;6.13;;;12.60;99.90;;;;;;10407157;28;20645;-71
2022/10/17 06:16:45;;;;;;;7.00;6.20;;;12.70;99.90;;;;;;10406940;28;20678;-71
2022/10/17 06:21:46;;;;;;;9.73;7.00;;;12.70;99.90;;;;;;10420516;28;20216;-71
2022/10/17 06:26:48;;;;;;;9.50;6.47;;;12.80;99.90;;;;;;10421499;28;20665;-72
2022/10/17 06:31:49;;;;;;;11.80;6.77;;;13.00;99.90;;;;;;10405503;28;20253;-72
2022/10/17 06:36:50;;;;;;;12.73;6.83;;;13.10;99.90;;;;;;10382826;28;20238;-72
2022/10/17 06:41:50;;;;;;;14.87;7.93;;;13.30;99.90;;;;;;10404996;28;20215;-72
2022/10/17 06:46:51;;;;;;;14.43;8.70;;;13.40;99.90;;;;;;10401974;28;20215;-72
2022/10/17 06:51:52;;;;;;;13.43;8.20;;;13.60;99.90;;;;;;10397454;28;21074;-72
2022/10/17 06:56:53;;;;;;;12.63;7.53;;;14.20;99.90;;;;;;10403733;28;20698;-71
2022/10/17 07:01:53;;;;;;;11.97;6.40;;;15.10;99.90;;;;;;10401249;28;20228;-72
2022/10/17 07:06:54;;;;;;;9.47;6.13;;;16.90;99.90;;;;;;10389539;28;20696;-72
2022/10/17 07:11:54;;;;;;;6.57;4.63;;;17.80;99.90;;;;;;10411216;28;20611;-72
2022/10/17 07:17:00;;;;;;;5.73;4.50;;;17.60;99.90;;;;;;10425372;28;20220;-71
2022/10/17 07:22:00;;;;;;;6.50;3.90;;;17.70;99.90;;;;;;10397111;28;20917;-73
2022/10/17 07:27:01;;;;;;;8.13;3.30;;;19.00;99.90;;;;;;10417003;28;20228;-73
2022/10/17 07:32:05;;;;;;;7.83;4.30;;;21.10;99.90;;;;;;10438926;28;20232;-72
2022/10/17 07:37:06;;;;;;;8.13;3.97;;;24.20;99.90;;;;;;10436042;28;20229;-73
2022/10/17 07:42:06;;;;;;;10.20;3.40;;;26.60;99.90;;;;;;10438471;28;20212;-73
2022/10/17 07:47:07;;;;;;;6.73;3.83;;;27.80;99.90;;;;;;10440565;28;20742;-72
2022/10/17 07:52:12;;;;;;;12.67;3.97;;;28.90;96.00;;;;;;10438797;28;20218;-72
2022/10/17 07:57:13;;;;;;;7.93;3.67;;;30.00;91.40;;;;;;10443883;28;20651;-72
2022/10/17 08:02:21;;;;;;;12.93;3.27;;;31.50;80.70;;;;;;10438497;28;20225;-73
2022/10/17 08:07:22;;;;;;;8.17;3.33;;;32.10;72.70;;;;;;10432301;28;20241;-74
2022/10/17 08:12:23;;;;;;;4.43;3.63;;;32.30;67.80;;;;;;10439245;28;20560;-74
2022/10/17 08:17:24;;;;;;;5.27;3.23;;;32.10;66.00;;;;;;10434297;28;20212;-74
2022/10/17 08:22:25;;;;;;;8.30;3.90;;;31.80;65.20;;;;;;10439520;28;20215;-73
2022/10/17 08:27:27;;;;;;;7.10;3.63;;;31.30;66.10;;;;;;10441088;28;20219;-74
2022/10/17 08:32:29;;;;;;;8.07;3.70;;;30.20;69.40;;;;;;10452977;28;20227;-74
2022/10/17 08:37:30;;;;;;;7.50;3.63;;;29.80;70.90;;;;;;10437051;28;20604;-74
2022/10/17 08:42:51;;;;;;;7.73;3.40;;;29.20;73.00;;;;;;10443399;28;20310;-74
2022/10/17 08:48:00;;;;;;;9.13;3.73;;;29.30;74.50;;;;;;10444616;28;20281;-72
2022/10/17 08:53:15;;;;;;;11.90;4.00;;;29.10;73.20;;;;;;10443194;28;20236;-74
2022/10/17 08:58:22;;;;;;;9.43;3.50;;;28.90;74.40;;;;;;10447675;28;20258;-73
2022/10/17 09:04:00;;;;;;;8.37;3.53;;;29.30;74.40;;;;;;10443150;28;20710;-73
2022/10/17 09:09:16;;;;;;;10.33;3.80;;;29.70;71.20;;;;;;10444647;28;20226;-72
2022/10/17 09:14:41;;;;;;;8.70;3.10;;;29.40;73.00;;;;;;10449941;28;20271;-72
2022/10/17 09:19:50;;;;;;;11.33;3.20;;;29.70;72.10;;;;;;10446309;28;20261;-73
2022/10/17 09:25:02;;;;;;;4.07;3.03;;;30.10;70.70;;;;;;10432361;28;20230;-73
2022/10/17 09:30:33;;;;;;;9.77;3.10;;;30.20;69.90;;;;;;10435725;28;20224;-73
2022/10/17 09:35:34;;;;;;;7.13;2.80;;;30.90;68.30;;;;;;10411312;28;20216;-71
2022/10/17 09:40:35;;;;;;;6.77;2.80;;;32.20;63.10;;;;;;10391341;28;20215;-74
2022/10/17 09:45:48;;;;;;;4.77;2.33;;;34.00;57.60;;;;;;10425056;28;20238;-75
2022/10/17 09:50:49;;;;;;;5.07;2.30;;;34.60;55.60;;;;;;10432466;28;20766;-73
2022/10/17 09:55:56;;;;;;;6.03;2.30;;;34.50;53.90;;;;;;10425039;28;20220;-75
2022/10/17 10:01:21;;;;;;;5.20;2.50;;;34.30;54.10;;;;;;10421667;28;20307;-75
2022/10/17 10:06:26;;;;;;;9.33;2.40;;;34.40;53.20;;;;;;10392363;28;20326;-75
2022/10/17 10:11:49;;;;;;;5.67;2.40;;;35.40;52.20;;;;;;10400530;28;20236;-75
2022/10/17 10:16:52;;;;;;;5.37;2.20;;;35.70;51.50;;;;;;10397175;28;20742;-76
2022/10/17 10:21:59;;;;;;;4.47;2.23;;;35.30;51.10;;;;;;10401849;28;20235;-76
2022/10/17 10:27:03;;;;;;;8.23;2.30;;;35.00;51.60;;;;;;10395038;28;20227;-76
2022/10/17 10:32:25;;;;;;;3.87;2.00;;;35.90;49.80;;;;;;10394107;28;20216;-76
2022/10/17 10:37:29;;;;;;;6.33;1.80;;;36.60;48.90;;;;;;10415654;28;20951;-76
2022/10/17 10:42:33;;;;;;;6.97;2.10;;;37.00;48.30;;;;;;10441003;28;20596;-76
2022/10/17 10:47:34;;;;;;;6.63;1.80;;;38.10;46.10;;;;;;10444220;28;20335;-76
2022/10/17 10:52:49;;;;;;;5.03;2.07;;;38.50;44.90;;;;;;10445940;28;20251;-76
2022/10/17 10:57:56;;;;;;;10.17;2.17;;;38.30;44.30;;;;;;10439439;28;20774;-76
2022/10/17 11:03:19;;;;;;;6.43;2.10;;;38.30;44.90;;;;;;10429122;28;20243;-76
2022/10/17 11:08:25;;;;;;;7.57;2.00;;;38.40;44.00;;;;;;10444354;28;20704;-76
2022/10/17 11:13:32;;;;;;;5.43;2.73;;;35.40;47.90;;;;;;10446052;28;20224;-75
2022/10/17 11:18:45;;;;;;;5.43;2.47;;;31.10;55.70;;;;;;10447999;28;20225;-75
2022/10/17 11:24:06;;;;;;;4.23;2.20;;;28.50;62.80;;;;;;10446457;28;20223;-75
2022/10/17 11:29:10;;;;;;;5.00;2.73;;;26.80;70.80;;;;;;10440307;28;20219;-73
2022/10/17 11:34:19;;;;;;;9.17;2.30;;;26.00;75.10;;;;;;10445664;28;20212;-74
2022/10/17 11:39:28;;;;;;;9.03;2.30;;;25.60;79.20;;;;;;10445233;28;20857;-74
2022/10/17 11:44:37;;;;;;;8.53;2.57;;;25.30;81.70;;;;;;10444519;28;20298;-75
2022/10/17 11:49:46;;;;;;;6.67;2.17;;;25.10;84.00;;;;;;10443364;28;20474;-75
2022/10/17 11:54:54;;;;;;;8.37;2.70;;;25.00;85.90;;;;;;10444724;28;20293;-75
2022/10/17 11:59:57;;;;;;;9.37;2.73;;;24.80;87.50;;;;;;10446222;28;20787;-75
2022/10/17 12:05:12;;;;;;;6.73;2.67;;;24.70;87.20;;;;;;10444834;28;20212;-74
2022/10/17 12:10:23;;;;;;;3.73;2.20;;;24.50;89.60;;;;;;10430621;28;20230;-75
2022/10/17 12:15:24;;;;;;;5.77;2.63;;;24.40;91.00;;;;;;10446874;28;20274;-72
2022/10/17 12:20:29;;;;;;;5.80;3.00;;;24.20;91.50;;;;;;10446745;28;21084;-73
2022/10/17 12:25:33;;;;;;;3.33;2.67;;;24.20;92.20;;;;;;10450948;28;20222;-74
2022/10/17 12:30:33;;;;;;;4.37;2.70;;;24.10;92.70;;;;;;10443729;28;20313;-73
2022/10/17 12:35:36;;;;;;;11.97;2.97;;;24.10;93.50;;;;;;10453629;28;20216;-73
2022/10/17 12:40:37;;;;;;;8.77;2.87;;;24.10;94.20;;;;;;10428423;28;20215;-73
2022/10/17 12:45:51;;;;;;;6.20;2.80;;;24.10;93.60;;;;;;10451452;28;20215;-73
2022/10/17 12:51:03;;;;;;;7.07;3.00;;;24.00;93.20;;;;;;10449334;28;20226;-73
2022/10/17 12:56:05;;;;;;;15.90;3.23;;;23.90;94.20;;;;;;10445501;28;20298;-73
2022/10/17 13:01:27;;;;;;;7.33;3.03;;;23.80;95.20;;;;;;10443324;28;20250;-72
2022/10/17 13:06:30;;;;;;;7.50;3.03;;;23.80;96.10;;;;;;10437496;28;20216;-71
2022/10/17 13:11:33;;;;;;;6.40;3.30;;;23.80;96.20;;;;;;10418878;28;20832;-72
2022/10/17 13:16:36;;;;;;;6.67;2.43;;;23.70;97.40;;;;;;10425629;28;20228;-71
2022/10/17 13:21:37;;;;;;;7.77;2.77;;;23.70;98.00;;;;;;10406621;28;20242;-73
2022/10/17 13:26:44;;;;;;;8.17;2.73;;;23.70;97.60;;;;;;10435901;28;20216;-72
2022/10/17 13:31:51;;;;;;;6.67;2.60;;;23.70;97.70;;;;;;10410530;28;20224;-72
2022/10/17 13:37:01;;;;;;;6.40;2.90;;;23.70;98.20;;;;;;10420499;28;20228;-73
2022/10/17 13:42:02;;;;;;;6.23;2.43;;;23.70;98.60;;;;;;10448231;28;20241;-72
2022/10/17 13:47:02;;;;;;;4.37;2.40;;;23.60;99.30;;;;;;10443676;28;20246;-73
2022/10/17 13:52:05;;;;;;;4.53;2.40;;;23.60;99.90;;;;;;10435697;28;20238;-72
2022/10/17 13:57:20;;;;;;;4.87;2.90;;;23.60;99.90;;;;;;10420733;28;20216;-71
2022/10/17 14:02:26;;;;;;;7.23;3.30;;;23.70;99.90;;;;;;10407335;28;20219;-72
2022/10/17 14:07:36;;;;;;;8.20;2.97;;;23.60;99.90;;;;;;10406543;28;20224;-74
2022/10/17 14:12:42;;;;;;;6.03;2.70;;;23.60;99.90;;;;;;10422059;28;20873;-73
2022/10/17 14:17:44;;;;;;;6.97;2.57;;;23.40;99.90;;;;;;10420440;28;20220;-73
2022/10/17 14:22:46;;;;;;;10.13;2.43;;;23.30;99.90;;;;;;10404439;28;20277;-74
2022/10/17 14:28:08;;;;;;;5.60;2.60;;;23.30;99.90;;;;;;10396958;28;20679;-74
2022/10/17 14:33:22;;;;;;;5.87;2.60;;;23.20;99.90;;;;;;10417085;28;20246;-73
2022/10/17 14:38:23;;;;;;;10.87;2.60;;;23.20;99.90;;;;;;10409750;28;20276;-74
2022/10/17 14:43:27;;;;;;;6.53;2.53;;;23.10;99.90;;;;;;10403110;28;20227;-74
2022/10/17 14:48:30;;;;;;;5.03;2.67;;;23.10;99.90;;;;;;10407101;28;20280;-74
2022/10/17 14:53:31;;;;;;;9.40;2.73;;;22.90;99.90;;;;;;10397628;28;20826;-74
2022/10/17 14:58:33;;;;;;;9.50;2.70;;;22.80;99.90;;;;;;10400101;28;20215;-72
2022/10/17 15:03:34;;;;;;;9.37;2.97;;;22.70;99.90;;;;;;10406158;28;20214;-73
2022/10/17 15:08:34;;;;;;;5.20;2.60;;;22.60;99.90;;;;;;10403947;28;20285;-72
2022/10/17 15:13:35;;;;;;;6.20;2.53;;;22.60;99.90;;;;;;10406622;28;20555;-73
2022/10/17 15:18:36;;;;;;;2.80;2.50;;;22.70;99.90;;;;;;10406429;28;20880;-72
2022/10/17 15:23:37;;;;;;;7.67;2.70;;;22.80;99.90;;;;;;10394794;28;20647;-73
2022/10/17 15:28:37;;;;;;;7.20;2.50;;;22.90;99.90;;;;;;10397517;28;20231;-73
2022/10/17 15:33:38;;;;;;;6.50;2.80;;;23.00;99.90;;;;;;10398913;28;20220;-74
2022/10/17 15:38:38;;;;;;;6.70;2.80;;;23.10;99.90;;;;;;10400213;28;20220;-73
2022/10/17 15:43:39;;;;;;;4.17;2.50;;;23.10;99.90;;;;;;10401307;28;20315;-74
2022/10/17 15:48:40;;;;;;;6.43;2.53;;;23.10;99.90;;;;;;10399811;28;20674;-73
2022/10/17 15:53:41;;;;;;;3.80;2.80;;;23.00;99.90;;;;;;10429706;28;20237;-75
2022/10/17 15:58:41;;;;;;;7.27;2.90;;;22.90;99.90;;;;;;10410794;28;20285;-73
2022/10/17 16:03:45;;;;;;;10.60;2.93;;;22.70;99.90;;;;;;10399953;28;20219;-73
2022/10/17 16:08:47;;;;;;;6.17;3.00;;;22.50;99.90;;;;;;10389916;28;20297;-71
2022/10/17 16:13:50;;;;;;;6.90;2.90;;;22.20;99.90;;;;;;10395706;28;20224;-71
2022/10/17 16:18:51;;;;;;;4.10;3.00;;;21.80;99.90;;;;;;10436383;28;20211;-72
2022/10/17 16:23:52;;;;;;;5.30;3.40;;;21.50;99.90;;;;;;10410484;28;20873;-74
2022/10/17 16:28:54;;;;;;;6.07;3.10;;;21.20;99.90;;;;;;10385680;28;20223;-72
2022/10/17 16:33:57;;;;;;;8.00;3.10;;;21.00;99.90;;;;;;10387240;28;20265;-71
2022/10/17 16:38:57;;;;;;;5.03;3.13;;;20.70;99.90;;;;;;10380713;28;20222;-74
2022/10/17 16:44:00;;;;;;;4.77;3.43;;;20.50;99.90;;;;;;10389314;28;20730;-72
2022/10/17 16:49:02;;;;;;;3.53;3.17;;;20.30;99.90;;;;;;10381500;28;20289;-71
2022/10/17 16:54:03;;;;;;;6.60;3.60;;;20.10;99.90;;;;;;10387991;28;20218;-71
2022/10/17 16:59:04;;;;;;;6.33;3.97;;;19.90;99.90;;;;;;10381821;28;20693;-73
2022/10/17 17:04:04;;;;;;;6.43;3.67;;;19.80;99.90;;;;;;10391641;28;20311;-73
2022/10/17 17:09:05;;;;;;;5.07;4.40;;;19.80;99.90;;;;;;10392645;28;20232;-73
2022/10/17 17:14:06;;;;;;;8.23;4.23;;;19.80;99.90;;;;;;10389390;28;20317;-73
2022/10/17 17:19:11;;;;;;;7.23;3.80;;;19.80;99.90;;;;;;10394849;28;20222;-73
2022/10/17 17:24:12;;;;;;;5.80;4.10;;;19.90;99.90;;;;;;10394441;28;20225;-72
2022/10/17 17:29:13;;;;;;;9.30;4.40;;;19.90;99.90;;;;;;10389721;28;20298;-70
2022/10/17 17:34:13;;;;;;;6.43;3.97;;;20.00;99.90;;;;;;10393398;28;20226;-69
2022/10/17 17:39:14;;;;;;;8.70;4.10;;;20.10;99.90;;;;;;10391653;28;20729;-69
2022/10/17 17:44:15;;;;;;;8.50;4.00;;;20.10;99.90;;;;;;10390051;28;20236;-69
2022/10/17 17:49:16;;;;;;;9.10;3.80;;;20.20;99.90;;;;;;10437680;28;20217;-68
2022/10/17 17:54:16;;;;;;;12.43;3.77;;;20.20;99.90;;;;;;10436356;28;20689;-69
2022/10/17 17:59:17;;;;;;;11.67;5.63;;;20.20;99.90;;;;;;10401872;28;20682;-69
2022/10/17 18:04:17;;;;;;;9.57;4.33;;;20.20;99.90;;;;;;10399005;28;20232;-69
2022/10/17 18:09:19;;;;;;;6.70;4.00;;;20.10;99.90;;;;;;10383700;28;20240;-69
2022/10/17 18:14:22;;;;;;;5.87;4.37;;;20.00;99.90;;;;;;10396101;28;20219;-69
2022/10/17 18:19:23;;;;;;;9.73;4.40;;;19.90;99.90;;;;;;10394498;28;20213;-69
2022/10/17 18:24:23;;;;;;;8.60;4.63;;;19.80;99.90;;;;;;10389573;28;20309;-69
2022/10/17 18:29:25;;;;;;;7.93;4.10;;;19.60;99.90;;;;;;10389760;28;20283;-69
2022/10/17 18:34:26;;;;;;;9.23;3.93;;;19.50;99.90;;;;;;10402491;28;20229;-70
2022/10/17 18:39:27;;;;;;;8.90;4.07;;;19.50;99.90;;;;;;10384646;28;20765;-69
2022/10/17 18:44:28;;;;;;;7.60;4.03;;;19.50;99.90;;;;;;10387190;28;20249;-70
2022/10/17 18:49:28;;;;;;;10.63;4.03;;;19.50;99.90;;;;;;10388566;28;20227;-69
2022/10/17 18:54:32;;;;;;;12.73;3.90;;;19.50;99.90;;;;;;10388751;28;20218;-69
2022/10/17 18:59:33;;;;;;;5.60;4.23;;;19.40;99.90;;;;;;10387761;28;20225;-69
2022/10/17 19:04:33;;;;;;;6.90;3.90;;;19.40;99.90;;;;;;10387247;28;20237;-69
2022/10/17 19:09:34;;;;;;;7.67;4.37;;;19.30;99.90;;;;;;10383741;28;20710;-69
2022/10/17 19:14:37;;;;;;;6.77;3.80;;;19.20;99.90;;;;;;10390536;28;20214;-70
2022/10/17 19:19:38;;;;;;;9.73;4.10;;;19.20;99.90;;;;;;10381942;28;20238;-69
2022/10/17 19:24:38;;;;;;;5.23;4.20;;;19.10;99.90;;;;;;10384996;28;20230;-69
2022/10/17 19:29:42;;;;;;;6.67;4.30;;;19.10;99.90;;;;;;10382576;28;20324;-69
2022/10/17 19:34:42;;;;;;;10.63;5.27;;;19.00;99.90;;;;;;10388308;28;20300;-69
2022/10/17 19:39:43;;;;;;;8.80;5.50;;;18.90;99.90;;;;;;10382238;28;20306;-70
2022/10/17 19:44:44;;;;;;;6.70;4.97;;;18.80;99.90;;;;;;10394683;28;20228;-70
2022/10/17 19:49:45;;;;;;;8.17;5.03;;;18.80;99.90;;;;;;10433897;28;20692;-69
2022/10/17 19:54:46;;;;;;;9.83;4.77;;;18.70;99.90;;;;;;10384225;28;20225;-70
2022/10/17 19:59:46;;;;;;;6.67;4.23;;;18.70;99.90;;;;;;10391064;28;20222;-70
2022/10/17 20:04:47;;;;;;;12.53;4.83;;;18.70;99.90;;;;;;10388052;28;20237;-70
2022/10/17 20:09:47;;;;;;;4.73;4.20;;;18.70;99.90;;;;;;10382806;28;20919;-69
2022/10/17 20:14:48;;;;;;;12.80;4.97;;;18.70;99.90;;;;;;10396815;28;20219;-69
2022/10/17 20:19:48;;;;;;;8.97;5.10;;;18.70;99.90;;;;;;10389302;28;20827;-70
2022/10/17 20:24:49;;;;;;;13.63;5.20;;;18.70;99.90;;;;;;10388961;28;20242;-66
2022/10/17 20:29:49;;;;;;;8.87;5.93;;;18.60;99.90;;;;;;10388987;28;20323;-67
2022/10/17 20:34:50;;;;;;;10.53;5.43;;;18.60;99.90;;;;;;10380681;28;20269;-72
2022/10/17 20:39:51;;;;;;;12.40;5.20;;;18.60;99.90;;;;;;10393443;28;20236;-72
2022/10/17 20:44:51;;;;;;;8.13;4.73;;;18.50;99.90;;;;;;10390033;28;20711;-71
2022/10/17 20:49:52;;;;;;;10.67;4.60;;;18.50;99.90;;;;;;10394575;28;20268;-73
2022/10/17 20:54:52;;;;;;;7.37;4.67;;;18.50;99.90;;;;;;10389470;28;20219;-72
2022/10/17 20:59:53;;;;;;;11.53;5.43;;;18.50;99.90;;;;;;10388805;28;20231;-71
2022/10/17 21:04:53;;;;;;;10.37;6.23;;;18.50;99.90;;;;;;10395229;28;21058;-71
2022/10/17 21:09:54;;;;;;;11.43;6.00;;;18.40;99.90;;;;;;10388060;28;20226;-71
2022/10/17 21:14:54;;;;;;;10.13;5.80;;;18.40;99.90;;;;;;10402470;28;20824;-72
2022/10/17 21:19:55;;;;;;;12.70;6.23;;;18.40;99.90;;;;;;10387821;28;20225;-72
2022/10/17 21:24:56;;;;;;;12.03;6.73;;;18.40;99.90;;;;;;10392807;28;20311;-72
2022/10/17 21:29:56;;;;;;;8.93;5.67;;;18.30;99.90;;;;;;10396307;28;20227;-71
2022/10/17 21:34:57;;;;;;;8.33;6.10;;;18.30;99.90;;;;;;10388256;28;20242;-72
2022/10/17 21:39:57;;;;;;;10.80;6.40;;;18.30;99.90;;;;;;10400051;28;20287;-71
2022/10/17 21:44:58;;;;;;;6.93;5.60;;;18.20;99.90;;;;;;10385627;28;20227;-73
2022/10/17 21:49:58;;;;;;;11.00;6.00;;;18.10;99.90;;;;;;10393528;28;20234;-73
2022/10/17 21:54:59;;;;;;;13.20;6.00;;;18.00;99.90;;;;;;10386860;28;20649;-73
2022/10/17 21:59:59;;;;;;;10.20;5.50;;;17.90;99.90;;;;;;10395295;28;20229;-73
2022/10/17 22:05:00;;;;;;;10.77;6.17;;;17.80;99.90;;;;;;10393165;28;20636;-72
2022/10/17 22:10:01;;;;;;;8.83;6.03;;;17.70;99.90;;;;;;10392685;28;20238;-73
2022/10/17 22:15:02;;;;;;;6.67;5.20;;;17.70;99.90;;;;;;10393729;28;20232;-72
2022/10/17 22:20:03;;;;;;;6.90;5.57;;;17.70;99.90;;;;;;10392405;28;20258;-72
2022/10/17 22:25:04;;;;;;;8.43;5.13;;;17.80;99.90;;;;;;10392573;28;20306;-71
2022/10/17 22:30:06;;;;;;;7.43;5.67;;;17.80;99.90;;;;;;10434066;28;20632;-71
2022/10/17 22:35:07;;;;;;;12.63;6.00;;;17.90;99.90;;;;;;10392292;28;20212;-70
2022/10/17 22:40:07;;;;;;;7.53;5.90;;;17.90;99.90;;;;;;10385581;28;20623;-71
2022/10/17 22:45:08;;;;;;;9.13;6.03;;;18.00;99.90;;;;;;10391150;28;20616;-71
2022/10/17 22:50:09;;;;;;;9.70;5.80;;;18.00;99.90;;;;;;10385756;28;20272;-71
2022/10/17 22:55:09;;;;;;;9.33;5.47;;;18.00;99.90;;;;;;10390842;28;20178;-71
2022/10/17 23:00:11;;;;;;;9.70;5.73;;;18.00;99.90;;;;;;10384453;28;20189;-71
2022/10/17 23:05:12;;;;;;;12.27;7.90;;;18.00;99.90;;;;;;10390250;28;20216;-71
2022/10/17 23:10:13;;;;;;;10.37;6.63;;;18.00;99.90;;;;;;10404835;28;20205;-71
2022/10/17 23:15:13;;;;;;;10.13;7.33;;;17.90;99.90;;;;;;10390614;28;20181;-72
2022/10/17 23:20:14;;;;;;;12.83;7.90;;;17.90;99.90;;;;;;10385301;28;20343;-72
2022/10/17 23:25:15;;;;;;;9.53;7.17;;;17.90;99.90;;;;;;10389867;28;20196;-72
2022/10/17 23:30:16;;;;;;;10.47;7.43;;;17.90;99.90;;;;;;10384508;28;20210;-71
2022/10/17 23:35:19;;;;;;;13.27;6.80;;;17.80;99.90;;;;;;10389624;28;20187;-72
2022/10/17 23:40:20;;;;;;;12.77;6.37;;;17.80;99.90;;;;;;10384433;28;20294;-71
2022/10/17 23:45:21;;;;;;;16.33;7.10;;;17.80;99.90;;;;;;10385949;28;20271;-72
2022/10/17 23:50:21;;;;;;;10.33;7.37;;;17.70;99.90;;;;;;10396620;28;20743;-71
2022/10/17 23:55:22;;;;;;;13.70;7.70;;;17.60;99.90;;;;;;10384295;28;20728;-73
